Time;durP1;ratioP1;P1;durP2;ratioP2;P2;SDS_P1;SDS_P2;PMS_P1;PMS_P2;Temp;Humidity;BMP_temperature;BMP_pressure;BME280_temperature;BME280_humidity;BME280_pressure;Samples;Min_cycle;Max_cycle;Signal;HPM_P1;HPM_P2
2022/12/30 00:00:56;;;;;;;7.38;1.45;;;8.60;84.20;;;;;;5064244;28;20134;-60
2022/12/30 00:03:23;;;;;;;5.55;1.35;;;8.50;84.30;;;;;;5062459;28;20047;-61
2022/12/30 00:05:55;;;;;;;2.63;0.88;;;8.50;84.30;;;;;;5068395;28;20064;-61
2022/12/30 00:11:06;;;;;;;4.90;1.58;;;8.50;84.60;;;;;;5068641;28;20056;-61
2022/12/30 00:33:09;;;;;;;6.68;2.38;;;8.50;84.80;;;;;;5063229;28;20044;-60
2022/12/30 00:35:38;;;;;;;6.78;1.88;;;8.60;84.90;;;;;;5055356;28;20055;-60
2022/12/30 00:38:06;;;;;;;7.88;2.15;;;8.60;84.80;;;;;;5064816;28;20036;-61
2022/12/30 00:40:33;;;;;;;5.60;2.03;;;8.60;84.70;;;;;;5066167;28;20699;-60
2022/12/30 00:43:09;;;;;;;4.88;1.50;;;8.60;84.70;;;;;;5069332;28;20044;-61
2022/12/30 00:45:38;;;;;;;6.10;1.48;;;8.60;84.60;;;;;;5064737;28;20051;-62
2022/12/30 00:56:20;;;;;;;9.50;3.60;;;8.60;84.60;;;;;;5066856;28;20060;-70
2022/12/30 00:58:47;;;;;;;7.57;3.28;;;8.60;84.50;;;;;;5064786;28;20049;-68
2022/12/30 01:01:14;;;;;;;8.70;2.95;;;8.60;84.50;;;;;;5066706;28;20044;-70
2022/12/30 01:03:41;;;;;;;6.97;2.60;;;8.60;84.50;;;;;;5060147;28;20056;-69
2022/12/30 01:06:09;;;;;;;6.05;2.53;;;8.60;84.50;;;;;;5065463;28;20048;-68
2022/12/30 01:08:38;;;;;;;9.55;2.85;;;8.60;84.20;;;;;;5066312;28;20056;-71
2022/12/30 01:11:08;;;;;;;9.80;3.17;;;8.50;84.40;;;;;;5069035;28;20040;-69
2022/12/30 01:13:35;;;;;;;7.30;2.70;;;8.40;84.10;;;;;;5065789;28;20049;-68
2022/12/30 01:16:10;;;;;;;7.25;2.50;;;8.50;84.10;;;;;;5065967;28;20045;-70
2022/12/30 01:18:41;;;;;;;11.32;2.40;;;8.40;84.10;;;;;;5067267;28;20436;-69
2022/12/30 01:21:08;;;;;;;8.10;2.63;;;8.40;84.10;;;;;;5066219;28;20044;-69
2022/12/30 01:23:36;;;;;;;8.48;3.08;;;8.40;83.90;;;;;;5066291;28;20341;-69
2022/12/30 01:26:05;;;;;;;7.95;2.80;;;8.30;84.00;;;;;;5069943;28;20051;-67
2022/12/30 01:28:32;;;;;;;11.85;3.17;;;8.30;84.00;;;;;;5062113;28;20048;-68
2022/12/30 01:31:01;;;;;;;11.23;2.75;;;8.20;83.80;;;;;;5067078;28;20055;-70
2022/12/30 01:33:32;;;;;;;7.43;3.25;;;8.20;83.90;;;;;;5066110;28;20053;-69
2022/12/30 01:35:59;;;;;;;7.50;2.65;;;8.10;83.90;;;;;;5065449;28;20037;-69
2022/12/30 01:38:26;;;;;;;8.32;2.83;;;8.10;84.10;;;;;;5068716;28;20052;-70
2022/12/30 01:40:55;;;;;;;6.55;2.75;;;8.10;83.90;;;;;;5062501;28;20663;-58
2022/12/30 01:43:39;;;;;;;7.65;2.33;;;8.00;83.90;;;;;;5064198;28;20526;-60
2022/12/30 01:46:07;;;;;;;5.72;2.30;;;8.00;83.90;;;;;;5061380;28;20045;-59
2022/12/30 01:48:35;;;;;;;7.75;2.40;;;8.00;83.80;;;;;;5066824;28;21122;-59
2022/12/30 01:51:10;;;;;;;7.30;2.03;;;8.00;83.80;;;;;;5067351;28;20055;-60
2022/12/30 01:53:43;;;;;;;10.43;2.38;;;8.00;83.70;;;;;;5065837;28;20049;-61
2022/12/30 01:56:14;;;;;;;8.30;2.20;;;7.90;83.70;;;;;;5067181;28;20071;-59
2022/12/30 01:58:43;;;;;;;9.25;2.45;;;7.90;83.80;;;;;;5062598;28;20049;-59
2022/12/30 02:01:10;;;;;;;9.13;2.43;;;7.90;84.00;;;;;;5044372;28;20056;-59
2022/12/30 02:03:44;;;;;;;10.02;2.75;;;7.90;83.70;;;;;;5062122;28;20470;-59
2022/12/30 02:06:12;;;;;;;7.78;2.65;;;7.80;83.70;;;;;;5063779;28;20556;-59
2022/12/30 02:08:39;;;;;;;7.07;1.88;;;7.70;83.80;;;;;;5066358;28;20048;-59
2022/12/30 02:11:06;;;;;;;8.13;2.10;;;7.70;83.90;;;;;;5064902;28;20045;-58
2022/12/30 02:13:35;;;;;;;11.75;2.20;;;7.70;83.90;;;;;;5066233;28;20052;-60
2022/12/30 02:16:28;;;;;;;6.75;1.73;;;7.60;83.90;;;;;;5066173;28;20052;-59
2022/12/30 02:19:07;;;;;;;7.75;1.52;;;7.60;84.00;;;;;;5064518;28;20045;-61
2022/12/30 02:21:57;;;;;;;6.93;1.83;;;7.60;84.00;;;;;;5064963;28;20143;-58
2022/12/30 02:25:07;;;;;;;9.35;1.77;;;7.60;83.90;;;;;;5064320;28;20955;-60
2022/12/30 02:27:54;;;;;;;5.38;1.65;;;7.60;83.80;;;;;;5059729;28;20055;-60
2022/12/30 02:30:24;;;;;;;4.43;1.33;;;7.60;83.80;;;;;;5064586;28;20059;-61
2022/12/30 02:33:05;;;;;;;5.93;1.80;;;7.50;83.70;;;;;;5067804;28;20041;-59
2022/12/30 02:35:43;;;;;;;5.45;1.35;;;7.50;83.80;;;;;;5065684;28;20036;-59
2022/12/30 02:38:21;;;;;;;3.75;0.98;;;7.40;83.90;;;;;;5067491;28;20055;-59
2022/12/30 02:46:37;;;;;;;5.22;1.15;;;7.40;84.20;;;;;;5063416;28;20056;-59
2022/12/30 02:49:08;;;;;;;7.13;1.58;;;7.50;84.20;;;;;;5066348;28;20063;-59
2022/12/30 02:54:24;;;;;;;6.38;1.17;;;7.40;84.20;;;;;;5067488;28;20136;-59
2022/12/30 02:56:52;;;;;;;4.13;1.17;;;7.40;84.10;;;;;;5066885;28;20072;-59
2022/12/30 03:05:19;;;;;;;5.65;1.10;;;7.20;84.20;;;;;;5067480;28;20063;-60
2022/12/30 03:07:51;;;;;;;8.02;1.15;;;7.20;84.20;;;;;;5066460;28;20056;-59
2022/12/30 03:13:18;;;;;;;7.45;1.30;;;7.10;84.20;;;;;;5066996;28;20048;-59
2022/12/30 03:15:50;;;;;;;5.13;1.15;;;7.00;84.10;;;;;;5065130;28;20502;-62
2022/12/30 03:18:19;;;;;;;4.15;1.10;;;7.00;84.10;;;;;;5068246;28;20060;-59
2022/12/30 03:20:48;;;;;;;12.05;1.80;;;7.00;84.00;;;;;;5062779;28;20048;-59
2022/12/30 03:28:49;;;;;;;7.78;1.95;;;6.80;83.90;;;;;;5066300;28;20068;-60
2022/12/30 03:31:18;;;;;;;4.97;1.33;;;6.80;83.90;;;;;;5064524;28;20045;-59
2022/12/30 03:33:46;;;;;;;5.75;1.85;;;6.80;83.80;;;;;;5063692;28;21760;-59
2022/12/30 03:36:18;;;;;;;6.00;1.20;;;6.70;83.90;;;;;;5062257;28;20072;-60
2022/12/30 03:38:53;;;;;;;6.13;1.27;;;6.70;84.00;;;;;;5062649;28;20072;-61
2022/12/30 03:41:21;;;;;;;7.28;1.30;;;6.70;84.10;;;;;;5062589;28;20078;-59
2022/12/30 03:43:50;;;;;;;4.72;1.05;;;6.70;84.00;;;;;;5052947;28;20079;-60
2022/12/30 03:46:19;;;;;;;6.65;1.33;;;6.70;84.10;;;;;;5052848;28;20053;-60
2022/12/30 03:48:46;;;;;;;4.75;1.00;;;6.70;84.10;;;;;;5053736;28;20037;-60
2022/12/30 03:51:14;;;;;;;5.70;1.10;;;6.70;84.10;;;;;;5054762;28;20041;-60
2022/12/30 03:53:41;;;;;;;6.60;1.10;;;6.70;84.20;;;;;;5052128;28;20045;-61
2022/12/30 03:56:08;;;;;;;10.82;1.70;;;6.60;84.10;;;;;;5042174;28;20045;-60
2022/12/30 03:58:34;;;;;;;5.72;1.20;;;6.60;84.10;;;;;;5052420;28;20068;-62
2022/12/30 04:01:01;;;;;;;4.32;1.10;;;6.60;84.20;;;;;;5057886;28;20056;-61
2022/12/30 04:03:28;;;;;;;5.90;0.90;;;6.60;84.10;;;;;;5050547;28;20052;-61
2022/12/30 04:05:56;;;;;;;5.00;1.35;;;6.50;84.10;;;;;;5055545;28;20041;-64
2022/12/30 04:08:25;;;;;;;3.83;1.00;;;6.50;84.20;;;;;;5057798;28;20045;-62
2022/12/30 04:10:53;;;;;;;;;;;6.50;84.40;;;;;;5052394;28;20048;-64
2022/12/30 04:13:20;;;;;;;7.10;1.33;;;6.60;84.40;;;;;;5058458;28;20375;-64
2022/12/30 04:15:49;;;;;;;6.07;1.20;;;6.60;84.50;;;;;;5055857;28;20049;-63
2022/12/30 04:18:16;;;;;;;5.85;1.40;;;6.60;84.40;;;;;;5055189;28;20139;-62
2022/12/30 04:20:43;;;;;;;6.90;1.45;;;6.50;84.50;;;;;;5052566;28;20435;-64
2022/12/30 04:23:10;;;;;;;6.97;1.25;;;6.50;84.30;;;;;;5057510;28;20060;-63
2022/12/30 04:25:38;;;;;;;8.30;1.20;;;6.50;84.40;;;;;;5054184;28;20044;-64
2022/12/30 04:28:05;;;;;;;7.10;1.30;;;6.50;84.30;;;;;;5057361;28;20514;-63
2022/12/30 04:30:32;;;;;;;7.38;0.98;;;6.40;84.30;;;;;;5053322;28;20052;-64
2022/12/30 04:33:00;;;;;;;6.43;1.40;;;6.40;84.20;;;;;;5056356;28;20084;-64
2022/12/30 04:35:30;;;;;;;4.45;1.45;;;6.30;84.20;;;;;;5055853;28;20399;-63
2022/12/30 04:37:57;;;;;;;3.80;1.23;;;6.30;84.30;;;;;;5054034;28;20120;-63
2022/12/30 04:40:23;;;;;;;6.18;1.23;;;6.20;84.30;;;;;;5054666;28;20036;-64
2022/12/30 04:42:52;;;;;;;2.92;1.33;;;6.20;84.30;;;;;;5062733;28;20048;-64
2022/12/30 04:45:19;;;;;;;5.93;1.67;;;6.20;84.40;;;;;;5066777;28;20048;-63
2022/12/30 04:47:45;;;;;;;3.97;1.10;;;6.20;84.50;;;;;;5066419;28;20106;-65
2022/12/30 04:50:13;;;;;;;5.15;0.95;;;6.20;84.60;;;;;;5069288;28;20040;-63
2022/12/30 04:52:39;;;;;;;5.65;1.50;;;6.20;84.80;;;;;;5070147;28;20571;-64
2022/12/30 04:55:07;;;;;;;4.97;1.17;;;6.20;84.90;;;;;;5069879;28;20094;-63
2022/12/30 04:57:34;;;;;;;6.10;1.30;;;6.30;85.10;;;;;;5066724;28;20522;-64
2022/12/30 05:00:03;;;;;;;4.68;1.20;;;6.30;85.40;;;;;;5066319;28;20044;-64
2022/12/30 05:02:32;;;;;;;9.13;1.70;;;6.40;85.50;;;;;;5066420;28;20048;-59
2022/12/30 05:04:59;;;;;;;3.88;1.08;;;6.40;85.80;;;;;;5065083;28;20110;-60
2022/12/30 05:07:26;;;;;;;4.28;1.05;;;6.40;85.90;;;;;;5067381;28;20162;-59
2022/12/30 05:09:53;;;;;;;4.10;1.40;;;6.50;86.20;;;;;;5066749;28;20052;-59
2022/12/30 05:12:20;;;;;;;6.40;1.15;;;6.50;86.10;;;;;;5065236;28;20050;-60
2022/12/30 05:14:47;;;;;;;7.90;1.63;;;6.50;86.20;;;;;;5063294;28;20051;-60
2022/12/30 05:17:15;;;;;;;6.47;1.70;;;6.60;86.10;;;;;;5066313;28;20406;-59
2022/12/30 05:19:42;;;;;;;6.35;1.45;;;6.60;86.10;;;;;;5063866;28;20056;-59
2022/12/30 05:22:09;;;;;;;4.20;1.20;;;6.70;86.20;;;;;;5060617;28;20491;-60
2022/12/30 05:27:20;;;;;;;7.57;1.38;;;6.70;86.20;;;;;;5066755;28;20047;-66
2022/12/30 05:29:47;;;;;;;7.03;1.40;;;6.70;86.70;;;;;;5064372;28;20104;-67
2022/12/30 05:32:15;;;;;;;6.90;1.45;;;6.70;86.80;;;;;;5068393;28;20052;-70
2022/12/30 05:34:42;;;;;;;5.47;1.33;;;6.60;86.80;;;;;;5064949;28;20043;-69
2022/12/30 05:37:09;;;;;;;4.20;1.30;;;6.70;86.80;;;;;;5068397;28;20510;-69
2022/12/30 05:39:36;;;;;;;4.93;1.30;;;6.60;86.70;;;;;;5062699;28;22048;-68
2022/12/30 05:42:03;;;;;;;3.65;0.90;;;6.60;86.70;;;;;;5058785;28;20045;-67
2022/12/30 05:44:31;;;;;;;3.88;1.02;;;6.60;86.90;;;;;;5055655;28;20491;-66
2022/12/30 05:46:59;;;;;;;3.70;1.20;;;6.70;86.60;;;;;;5051917;28;20052;-62
2022/12/30 05:49:27;;;;;;;3.70;1.08;;;6.70;86.60;;;;;;5052558;28;20052;-64
2022/12/30 05:51:54;;;;;;;6.18;1.60;;;6.70;86.80;;;;;;5050476;28;20044;-64
2022/12/30 05:54:21;;;;;;;5.20;1.65;;;6.70;86.50;;;;;;5053158;28;20049;-64
2022/12/30 05:56:47;;;;;;;5.70;1.35;;;6.80;86.70;;;;;;5056903;28;20492;-61
2022/12/30 05:59:14;;;;;;;5.57;1.50;;;6.80;86.50;;;;;;5053203;28;20048;-61
2022/12/30 06:01:41;;;;;;;5.70;1.65;;;6.90;86.40;;;;;;5052830;28;20045;-60
2022/12/30 06:04:08;;;;;;;4.93;1.40;;;6.90;86.50;;;;;;5054510;28;20146;-60
2022/12/30 06:06:36;;;;;;;8.95;1.70;;;6.90;86.60;;;;;;5051749;28;20127;-61
2022/12/30 06:09:03;;;;;;;5.47;1.20;;;6.90;86.50;;;;;;5051852;28;20072;-61
2022/12/30 06:11:30;;;;;;;7.32;1.30;;;6.90;86.50;;;;;;5050354;28;20048;-60
2022/12/30 06:13:57;;;;;;;6.72;1.70;;;6.90;86.40;;;;;;5054692;28;20399;-61
2022/12/30 06:16:24;;;;;;;5.55;1.40;;;6.90;86.60;;;;;;5051673;28;20049;-61
2022/12/30 06:18:51;;;;;;;4.88;1.42;;;7.00;86.50;;;;;;5053149;28;20048;-61
2022/12/30 06:21:18;;;;;;;7.65;1.73;;;7.00;86.70;;;;;;5054426;28;20053;-61
2022/12/30 06:23:46;;;;;;;4.85;1.48;;;7.00;86.80;;;;;;5052736;28;20734;-62
2022/12/30 06:26:13;;;;;;;5.50;1.52;;;7.00;86.80;;;;;;5056119;28;20045;-60
2022/12/30 06:28:40;;;;;;;6.72;1.70;;;7.00;86.80;;;;;;5051155;28;20044;-60
2022/12/30 06:31:07;;;;;;;6.63;1.45;;;7.00;86.90;;;;;;5053745;28;20368;-66
2022/12/30 06:33:34;;;;;;;6.40;1.55;;;7.00;86.90;;;;;;5053967;28;20598;-66
2022/12/30 06:36:00;;;;;;;6.15;1.13;;;7.00;87.00;;;;;;5054458;28;20491;-66
2022/12/30 06:38:27;;;;;;;6.15;1.70;;;7.00;86.90;;;;;;5054003;28;20060;-66
2022/12/30 06:40:55;;;;;;;6.75;1.67;;;7.00;86.90;;;;;;5049124;28;20063;-66
2022/12/30 06:43:23;;;;;;;6.55;1.48;;;7.10;86.70;;;;;;5037779;28;20033;-66
2022/12/30 06:45:49;;;;;;;4.78;1.63;;;7.10;86.80;;;;;;5038328;28;20049;-61
2022/12/30 06:48:18;;;;;;;7.07;1.50;;;7.10;86.90;;;;;;5038767;28;20073;-61
2022/12/30 06:50:45;;;;;;;6.10;1.27;;;7.10;86.90;;;;;;5037982;28;20052;-62
2022/12/30 06:53:12;;;;;;;5.78;1.40;;;7.10;86.90;;;;;;5037380;28;20720;-61
2022/12/30 06:55:39;;;;;;;4.18;1.45;;;7.10;87.10;;;;;;5036463;28;20123;-61
2022/12/30 06:58:07;;;;;;;7.43;1.55;;;7.10;87.00;;;;;;5035048;28;20368;-61
2022/12/30 07:00:35;;;;;;;5.80;1.48;;;7.10;87.10;;;;;;5036203;28;20057;-62
2022/12/30 07:03:02;;;;;;;6.32;1.50;;;7.10;87.10;;;;;;5039378;28;20045;-62
2022/12/30 07:05:29;;;;;;;6.65;1.48;;;7.10;87.10;;;;;;5037524;28;20059;-62
2022/12/30 07:07:56;;;;;;;7.80;1.63;;;7.10;87.10;;;;;;5034096;28;20547;-61
2022/12/30 07:10:23;;;;;;;6.40;1.63;;;7.10;87.10;;;;;;5033504;28;20049;-61
2022/12/30 07:12:50;;;;;;;4.78;1.50;;;7.20;86.90;;;;;;5035670;28;20053;-60
2022/12/30 07:15:18;;;;;;;7.35;1.60;;;7.20;86.90;;;;;;5036974;28;20041;-61
2022/12/30 07:17:46;;;;;;;4.68;1.52;;;7.20;86.80;;;;;;5031165;28;20045;-60
2022/12/30 07:20:13;;;;;;;6.47;1.80;;;7.20;86.90;;;;;;5037183;28;20555;-61
2022/12/30 07:22:40;;;;;;;6.13;2.25;;;7.20;87.00;;;;;;5037827;28;20056;-61
2022/12/30 07:25:08;;;;;;;5.90;2.30;;;7.20;87.00;;;;;;5040469;28;20045;-61
2022/12/30 07:27:35;;;;;;;6.20;1.85;;;7.20;86.90;;;;;;5041142;28;20463;-63
2022/12/30 07:30:02;;;;;;;5.07;1.38;;;7.20;86.90;;;;;;5039185;28;20037;-63
2022/12/30 07:32:35;;;;;;;10.07;1.70;;;7.20;86.80;;;;;;5037946;28;20052;-63
2022/12/30 07:35:02;;;;;;;5.22;1.58;;;7.20;86.60;;;;;;5039901;28;20041;-63
2022/12/30 07:37:30;;;;;;;7.82;2.20;;;7.20;86.70;;;;;;5039539;28;20061;-62
2022/12/30 07:39:57;;;;;;;8.70;2.10;;;7.20;86.70;;;;;;5038464;28;20540;-63
2022/12/30 07:42:24;;;;;;;6.72;1.52;;;7.20;86.60;;;;;;5055194;28;20053;-63
2022/12/30 07:44:50;;;;;;;7.55;1.75;;;7.20;86.40;;;;;;5068321;28;20049;-63
2022/12/30 07:47:17;;;;;;;7.13;2.00;;;7.30;86.50;;;;;;5069805;28;20045;-60
2022/12/30 07:49:46;;;;;;;5.18;1.63;;;7.30;86.50;;;;;;5068982;28;20048;-61
2022/12/30 07:52:12;;;;;;;6.88;1.48;;;7.30;86.50;;;;;;5069615;28;20070;-62
2022/12/30 07:54:39;;;;;;;7.22;1.40;;;7.40;86.50;;;;;;5066746;28;20041;-60
2022/12/30 07:57:06;;;;;;;6.13;1.65;;;7.30;86.40;;;;;;5069055;28;20045;-59
2022/12/30 07:59:34;;;;;;;5.72;1.55;;;7.40;86.40;;;;;;5069076;28;20053;-61
2022/12/30 08:02:01;;;;;;;5.55;1.48;;;7.40;86.30;;;;;;5065341;28;20059;-61
2022/12/30 08:04:28;;;;;;;4.15;1.50;;;7.40;86.20;;;;;;5067508;28;20422;-61
2022/12/30 08:06:57;;;;;;;4.13;1.48;;;7.40;86.30;;;;;;5068168;28;20054;-69
2022/12/30 08:09:24;;;;;;;7.53;1.90;;;7.50;86.30;;;;;;5060423;28;20041;-69
2022/12/30 08:11:51;;;;;;;7.05;1.65;;;7.50;86.20;;;;;;5057871;28;20044;-67
2022/12/30 08:14:18;;;;;;;5.50;1.77;;;7.50;86.30;;;;;;5064716;28;20056;-68
2022/12/30 08:16:45;;;;;;;6.45;1.42;;;7.50;86.20;;;;;;5051082;28;20135;-69
2022/12/30 08:19:12;;;;;;;6.38;1.77;;;7.60;86.20;;;;;;5064398;28;20041;-69
2022/12/30 08:21:39;;;;;;;6.85;1.67;;;7.60;86.20;;;;;;5067797;28;20045;-69
2022/12/30 08:24:09;;;;;;;7.55;2.13;;;7.60;86.10;;;;;;5071538;28;20129;-69
2022/12/30 08:26:36;;;;;;;5.78;1.70;;;7.60;86.10;;;;;;5067864;28;20552;-68
2022/12/30 08:29:03;;;;;;;9.30;2.58;;;7.70;86.20;;;;;;5069197;28;20040;-69
2022/12/30 08:31:30;;;;;;;7.90;2.35;;;7.70;86.10;;;;;;5065877;28;20055;-68
2022/12/30 08:33:58;;;;;;;6.68;1.98;;;7.70;86.10;;;;;;5062681;28;20499;-68
2022/12/30 08:36:28;;;;;;;9.48;2.65;;;7.70;86.10;;;;;;5068287;28;20048;-61
2022/12/30 08:38:57;;;;;;;8.30;2.33;;;7.70;86.00;;;;;;5062442;28;20068;-61
2022/12/30 08:41:27;;;;;;;8.15;2.97;;;7.70;86.00;;;;;;5064715;28;20056;-68
2022/12/30 08:43:56;;;;;;;8.20;2.28;;;7.70;85.90;;;;;;5069731;28;20067;-69
2022/12/30 08:46:23;;;;;;;6.03;1.88;;;7.80;85.90;;;;;;5064991;28;20059;-67
2022/12/30 08:48:54;;;;;;;9.82;2.30;;;7.80;85.80;;;;;;5063696;28;20068;-68
2022/12/30 08:51:22;;;;;;;8.45;1.92;;;7.90;85.80;;;;;;5066582;28;20124;-60
2022/12/30 08:53:50;;;;;;;5.20;1.80;;;7.90;85.70;;;;;;5063188;28;20048;-60
2022/12/30 08:56:19;;;;;;;8.88;2.78;;;7.90;85.70;;;;;;5067331;28;20402;-60
2022/12/30 08:58:47;;;;;;;6.72;2.15;;;8.00;85.60;;;;;;5065756;28;20044;-62
2022/12/30 09:01:18;;;;;;;7.13;1.92;;;8.00;85.50;;;;;;5066306;28;20560;-65
2022/12/30 09:03:46;;;;;;;7.35;1.65;;;8.10;85.30;;;;;;5063717;28;20091;-66
2022/12/30 09:06:14;;;;;;;5.53;1.25;;;8.20;85.20;;;;;;5070245;28;20036;-65
2022/12/30 09:08:42;;;;;;;3.35;0.98;;;8.10;84.90;;;;;;5068513;28;20462;-64
2022/12/30 09:11:11;;;;;;;8.90;1.40;;;8.20;84.80;;;;;;5069453;28;20056;-66
2022/12/30 09:13:39;;;;;;;5.38;1.13;;;8.20;84.60;;;;;;5067431;28;20052;-64
2022/12/30 09:16:10;;;;;;;5.40;1.00;;;8.20;84.50;;;;;;5070283;28;20051;-65
2022/12/30 09:18:37;;;;;;;4.22;0.95;;;8.20;84.50;;;;;;5067528;28;20498;-66
2022/12/30 09:21:05;;;;;;;8.30;1.40;;;8.30;84.40;;;;;;5069574;28;20059;-66
2022/12/30 09:23:33;;;;;;;5.30;1.20;;;8.30;84.20;;;;;;5069924;28;20079;-65
2022/12/30 09:26:00;;;;;;;5.20;1.20;;;8.40;84.10;;;;;;5070357;28;20055;-61
2022/12/30 09:28:29;;;;;;;9.80;1.70;;;8.40;83.90;;;;;;5069415;28;20127;-61
2022/12/30 09:30:56;;;;;;;4.93;1.10;;;8.50;83.80;;;;;;5063427;28;20511;-60
2022/12/30 09:33:24;;;;;;;4.10;0.90;;;8.50;83.60;;;;;;5069533;28;20506;-61
2022/12/30 09:35:51;;;;;;;5.20;1.27;;;8.50;83.50;;;;;;5049866;28;20388;-62
2022/12/30 09:38:18;;;;;;;4.90;1.10;;;8.50;83.10;;;;;;5068520;28;20052;-62
2022/12/30 09:40:55;;;;;;;6.55;1.23;;;8.50;83.10;;;;;;5067903;28;20052;-61
2022/12/30 09:43:28;;;;;;;6.03;1.45;;;8.60;83.00;;;;;;5057719;28;20040;-61
2022/12/30 09:46:09;;;;;;;3.30;1.10;;;8.60;82.90;;;;;;5055725;28;20052;-60
2022/12/30 09:48:42;;;;;;;4.38;1.30;;;8.60;82.90;;;;;;5055701;28;20071;-61
2022/12/30 09:51:13;;;;;;;6.65;1.40;;;8.60;82.90;;;;;;5047082;28;20059;-61
2022/12/30 09:53:45;;;;;;;4.38;1.23;;;8.60;82.70;;;;;;5057062;28;20041;-62
2022/12/30 09:56:16;;;;;;;6.25;1.42;;;8.60;82.70;;;;;;5054503;28;20056;-61
2022/12/30 09:58:45;;;;;;;4.25;1.48;;;8.70;82.60;;;;;;5053480;28;20045;-60
2022/12/30 10:01:24;;;;;;;5.57;1.35;;;8.70;82.50;;;;;;5053027;28;20407;-62
2022/12/30 10:03:56;;;;;;;4.00;1.08;;;8.70;82.40;;;;;;5051492;28;20049;-61
2022/12/30 10:06:29;;;;;;;3.38;1.08;;;8.70;82.60;;;;;;5050924;28;20053;-60
2022/12/30 10:09:16;;;;;;;4.45;1.05;;;8.70;82.20;;;;;;5054370;28;20075;-62
2022/12/30 10:11:56;;;;;;;4.03;1.10;;;8.70;82.20;;;;;;5056128;28;20085;-60
2022/12/30 10:14:30;;;;;;;3.85;1.23;;;8.70;82.00;;;;;;5054973;28;20044;-60
2022/12/30 10:17:05;;;;;;;4.35;1.20;;;8.70;82.10;;;;;;5057934;28;20059;-62
2022/12/30 10:19:49;;;;;;;3.78;1.38;;;8.70;82.10;;;;;;5055047;28;20048;-62
2022/12/30 10:22:23;;;;;;;4.30;1.60;;;8.80;82.10;;;;;;5056138;28;20053;-61
2022/12/30 10:25:03;;;;;;;3.88;1.45;;;8.80;82.00;;;;;;5055521;28;20383;-60
2022/12/30 10:27:40;;;;;;;4.60;1.23;;;8.80;81.90;;;;;;5056663;28;20059;-60
2022/12/30 10:30:14;;;;;;;5.38;1.40;;;8.80;81.90;;;;;;5056401;28;20049;-61
2022/12/30 10:32:49;;;;;;;4.60;1.10;;;8.80;82.00;;;;;;5054347;28;20056;-62
2022/12/30 10:35:22;;;;;;;5.18;1.25;;;8.80;82.10;;;;;;5056400;28;20052;-61
2022/12/30 10:37:54;;;;;;;4.35;1.08;;;8.80;82.00;;;;;;5055627;28;21610;-61
2022/12/30 10:40:24;;;;;;;3.80;1.33;;;8.90;82.10;;;;;;5057031;28;20093;-61
2022/12/30 10:43:15;;;;;;;3.90;1.25;;;8.80;82.00;;;;;;5057436;28;20044;-62
2022/12/30 10:45:59;;;;;;;4.25;1.08;;;8.90;82.00;;;;;;5054698;28;20734;-62
2022/12/30 10:48:50;;;;;;;3.28;1.10;;;8.90;81.90;;;;;;5056651;28;20041;-62
2022/12/30 10:51:18;;;;;;;;;;;9.00;81.80;;;;;;5055816;28;20146;-62
2022/12/30 10:53:48;;;;;;;2.88;1.10;;;9.10;81.90;;;;;;5055077;28;19947;-62
2022/12/30 10:56:20;;;;;;;5.60;1.25;;;9.10;81.80;;;;;;5056330;28;20045;-69
2022/12/30 10:58:47;;;;;;;5.13;1.42;;;9.10;81.70;;;;;;5059182;28;20045;-69
2022/12/30 11:01:17;;;;;;;6.35;1.90;;;9.20;81.80;;;;;;5058904;28;20566;-69
2022/12/30 11:03:48;;;;;;;4.80;1.50;;;9.20;81.90;;;;;;5060035;28;20059;-68
2022/12/30 11:06:21;;;;;;;4.90;1.30;;;9.20;81.80;;;;;;5058711;28;20059;-63
2022/12/30 11:08:48;;;;;;;4.10;1.30;;;9.20;81.80;;;;;;5060741;28;20052;-63
2022/12/30 11:11:16;;;;;;;5.50;1.67;;;9.30;81.70;;;;;;5059448;28;20119;-63
2022/12/30 11:16:40;;;;;;;7.03;1.92;;;9.30;81.50;;;;;;5054628;28;20048;-63
2022/12/30 11:19:23;;;;;;;6.43;2.13;;;9.30;81.60;;;;;;5057531;28;20060;-63
2022/12/30 11:21:54;;;;;;;5.55;2.25;;;9.30;81.40;;;;;;5058935;28;20072;-63
2022/12/30 11:24:21;;;;;;;5.00;2.17;;;9.40;81.40;;;;;;5059005;28;20044;-64
2022/12/30 11:26:49;;;;;;;6.88;2.20;;;9.40;81.20;;;;;;5061145;28;20135;-61
2022/12/30 11:29:19;;;;;;;6.97;2.10;;;9.40;81.10;;;;;;5059032;28;20072;-61
2022/12/30 11:31:50;;;;;;;7.10;2.53;;;9.40;81.10;;;;;;5058070;28;20783;-61
2022/12/30 11:34:21;;;;;;;5.93;2.13;;;9.40;81.10;;;;;;5054659;28;20360;-61
2022/12/30 11:36:48;;;;;;;6.47;2.25;;;9.40;81.10;;;;;;5059356;28;20060;-61
2022/12/30 11:39:33;;;;;;;8.07;2.08;;;9.40;81.20;;;;;;5055629;28;20102;-60
2022/12/30 11:42:02;;;;;;;4.85;1.95;;;9.40;81.30;;;;;;5063367;28;20044;-62
2022/12/30 11:44:31;;;;;;;5.45;1.80;;;9.40;81.20;;;;;;5070858;28;20143;-62
2022/12/30 11:47:01;;;;;;;7.07;2.00;;;9.40;81.30;;;;;;5071759;28;20040;-61
2022/12/30 11:49:32;;;;;;;4.80;1.33;;;9.40;81.30;;;;;;5058925;28;20048;-60
2022/12/30 11:52:08;;;;;;;3.88;1.33;;;9.40;81.20;;;;;;5070163;28;20053;-62
2022/12/30 11:54:43;;;;;;;4.15;1.40;;;9.30;81.40;;;;;;5070805;28;20410;-60
2022/12/30 11:57:21;;;;;;;4.28;0.93;;;9.30;81.20;;;;;;5069840;28;20052;-61
2022/12/30 11:59:50;;;;;;;3.97;0.85;;;9.40;81.10;;;;;;5069045;28;20133;-62
2022/12/30 12:02:21;;;;;;;4.38;1.10;;;9.40;81.10;;;;;;5070957;28;20056;-61
2022/12/30 12:04:48;;;;;;;5.65;1.20;;;9.40;81.10;;;;;;5068178;28;20044;-62
2022/12/30 12:07:26;;;;;;;4.50;1.33;;;9.40;81.10;;;;;;5068104;28;20047;-61
2022/12/30 12:10:04;;;;;;;6.57;2.05;;;9.40;81.00;;;;;;5070048;28;20045;-60
2022/12/30 12:12:39;;;;;;;6.43;2.78;;;9.50;81.00;;;;;;5069661;28;20036;-63
2022/12/30 12:15:23;;;;;;;8.40;2.95;;;9.50;81.00;;;;;;5068830;28;20040;-61
2022/12/30 12:17:55;;;;;;;7.85;3.20;;;9.50;80.70;;;;;;5069834;28;20049;-61
2022/12/30 12:20:29;;;;;;;6.30;2.95;;;9.60;80.70;;;;;;5066698;28;20051;-60
2022/12/30 12:23:07;;;;;;;7.88;3.58;;;9.60;80.60;;;;;;5066049;28;20052;-61
2022/12/30 12:25:41;;;;;;;7.85;3.50;;;9.60;80.60;;;;;;5068390;28;20052;-62
2022/12/30 12:28:11;;;;;;;8.38;3.38;;;9.60;80.40;;;;;;5069261;28;20056;-61
2022/12/30 12:30:58;;;;;;;7.75;3.50;;;9.60;80.30;;;;;;5069691;28;20133;-61
2022/12/30 12:33:34;;;;;;;8.90;3.50;;;9.60;80.10;;;;;;5064583;28;20056;-61
2022/12/30 12:36:06;;;;;;;6.18;2.85;;;9.60;80.20;;;;;;5068237;28;20052;-61
2022/12/30 12:38:52;;;;;;;6.68;2.55;;;9.60;80.30;;;;;;5068495;28;20048;-61
2022/12/30 12:41:52;;;;;;;6.70;2.00;;;9.60;80.40;;;;;;5066662;28;20047;-70
2022/12/30 12:44:41;;;;;;;4.70;1.50;;;9.60;80.10;;;;;;5059190;28;20048;-70
2022/12/30 12:47:22;;;;;;;3.60;1.55;;;9.60;80.30;;;;;;5049235;28;20467;-68
2022/12/30 12:50:04;;;;;;;6.57;2.08;;;9.60;80.30;;;;;;5057291;28;20468;-68
2022/12/30 12:52:41;;;;;;;4.55;1.45;;;9.60;80.20;;;;;;5054066;28;20478;-68
2022/12/30 12:55:32;;;;;;;4.03;1.35;;;9.50;80.40;;;;;;5052793;28;20064;-70
2022/12/30 12:58:08;;;;;;;3.88;1.27;;;9.50;80.40;;;;;;5052236;28;20053;-68
2022/12/30 13:00:47;;;;;;;3.35;1.27;;;9.50;80.30;;;;;;5054610;28;20051;-69
2022/12/30 13:03:48;;;;;;;3.50;1.10;;;9.50;80.50;;;;;;5057250;28;20051;-68
2022/12/30 13:06:26;;;;;;;4.75;1.00;;;9.50;80.50;;;;;;5054910;28;20045;-68
2022/12/30 13:09:19;;;;;;;1.80;0.80;;;9.50;80.40;;;;;;5050087;28;20130;-68
2022/12/30 13:11:53;;;;;;;2.78;1.23;;;9.40;80.40;;;;;;5053763;28;20071;-68
2022/12/30 13:14:33;;;;;;;2.67;0.98;;;9.40;80.50;;;;;;5058792;28;20056;-69
2022/12/30 13:17:03;;;;;;;3.22;1.10;;;9.40;80.50;;;;;;5057751;28;20059;-66
2022/12/30 13:19:35;;;;;;;3.00;1.10;;;9.40;80.50;;;;;;5058028;28;20052;-66
2022/12/30 13:22:07;;;;;;;2.95;0.90;;;9.50;80.60;;;;;;5059682;28;20071;-67
2022/12/30 13:24:41;;;;;;;3.28;1.00;;;9.40;80.40;;;;;;5058453;28;20048;-66
2022/12/30 13:27:18;;;;;;;2.78;1.13;;;9.40;80.40;;;;;;5057021;28;20411;-65
2022/12/30 13:29:47;;;;;;;4.25;1.48;;;9.40;80.50;;;;;;5055074;28;20049;-65
2022/12/30 13:32:22;;;;;;;3.85;1.35;;;9.40;80.70;;;;;;5057334;28;20502;-67
2022/12/30 13:34:57;;;;;;;3.45;1.42;;;9.40;80.80;;;;;;5056078;28;20061;-64
2022/12/30 13:37:31;;;;;;;3.97;1.40;;;9.40;80.90;;;;;;5058204;28;20129;-65
2022/12/30 13:40:01;;;;;;;4.30;1.30;;;9.40;81.10;;;;;;5057464;28;20051;-65
2022/12/30 13:42:43;;;;;;;3.53;1.25;;;9.40;80.90;;;;;;5060915;28;20487;-67
2022/12/30 13:45:23;;;;;;;4.65;1.60;;;9.40;81.10;;;;;;5068031;28;20052;-64
2022/12/30 13:47:58;;;;;;;4.43;1.65;;;9.30;81.50;;;;;;5063026;28;20048;-65
2022/12/30 13:50:28;;;;;;;6.43;1.95;;;9.30;81.20;;;;;;5067943;28;20043;-64
2022/12/30 13:52:57;;;;;;;3.88;1.70;;;9.40;81.00;;;;;;5068953;28;20056;-64
2022/12/30 13:55:28;;;;;;;6.05;2.63;;;9.30;81.90;;;;;;5068462;28;20051;-67
2022/12/30 13:58:00;;;;;;;5.03;2.15;;;9.30;81.20;;;;;;5069164;28;20043;-66
2022/12/30 14:00:33;;;;;;;4.65;1.83;;;9.30;81.30;;;;;;5062963;28;20044;-60
2022/12/30 14:03:04;;;;;;;3.97;1.40;;;9.30;81.40;;;;;;5068697;28;20048;-60
2022/12/30 14:05:48;;;;;;;4.60;1.92;;;9.30;81.40;;;;;;5065620;28;20117;-60
2022/12/30 14:08:37;;;;;;;3.72;1.42;;;9.40;81.10;;;;;;5064742;28;20050;-63
2022/12/30 14:11:09;;;;;;;3.63;1.58;;;9.30;80.90;;;;;;5067211;28;20059;-60
2022/12/30 14:13:38;;;;;;;4.47;1.75;;;9.30;80.90;;;;;;5067687;28;20368;-62
2022/12/30 14:16:33;;;;;;;4.43;2.13;;;9.30;81.00;;;;;;5066467;28;20047;-62